Time;durP1;ratioP1;P1;durP2;ratioP2;P2;SDS_P1;SDS_P2;PMS_P1;PMS_P2;Temp;Humidity;BMP_temperature;BMP_pressure;BME280_temperature;BME280_humidity;BME280_pressure;Samples;Min_cycle;Max_cycle;Signal;HPM_P1;HPM_P2
2022/05/08 00:00:35;;;;;;;3.20;1.55;;;16.10;99.90;;;;;;5063794;28;20554;-70
2022/05/08 00:03:02;;;;;;;2.58;1.17;;;16.10;99.90;;;;;;5070113;28;20101;-68
2022/05/08 00:05:29;;;;;;;2.67;1.60;;;16.30;99.80;;;;;;5072661;28;20027;-68
2022/05/08 00:07:56;;;;;;;3.17;1.50;;;16.40;99.80;;;;;;5066644;28;20500;-67
2022/05/08 00:10:23;;;;;;;2.28;1.38;;;16.70;99.80;;;;;;5086420;28;20032;-68
2022/05/08 00:12:50;;;;;;;1.92;1.52;;;16.90;98.80;;;;;;5085122;28;20047;-67
2022/05/08 00:15:17;;;;;;;2.70;1.50;;;16.90;99.30;;;;;;5064377;28;20024;-67
2022/05/08 00:17:44;;;;;;;2.30;1.42;;;17.00;99.00;;;;;;5066779;28;20098;-67
2022/05/08 00:20:12;;;;;;;2.65;1.50;;;17.10;99.30;;;;;;5072961;28;20032;-67
2022/05/08 00:22:46;;;;;;;4.10;1.52;;;17.30;99.00;;;;;;5071742;28;20471;-66
2022/05/08 00:25:13;;;;;;;2.58;1.25;;;17.50;98.60;;;;;;5070541;28;20039;-66
2022/05/08 00:27:40;;;;;;;2.05;1.23;;;17.50;98.60;;;;;;5078483;28;20110;-65
2022/05/08 00:30:08;;;;;;;3.72;1.40;;;17.70;97.80;;;;;;5082714;28;20020;-67
2022/05/08 00:32:35;;;;;;;2.38;1.30;;;17.80;98.20;;;;;;5082118;28;20024;-67
2022/05/08 00:35:02;;;;;;;2.97;1.48;;;18.00;98.30;;;;;;5079060;28;20032;-66
2022/05/08 00:37:29;;;;;;;2.95;1.35;;;18.30;98.10;;;;;;5082525;28;20040;-65
2022/05/08 00:39:56;;;;;;;7.28;1.85;;;18.40;96.80;;;;;;5067422;28;20024;-67
2022/05/08 00:42:23;;;;;;;1.58;0.88;;;18.50;97.20;;;;;;5066129;28;20305;-67
2022/05/08 00:44:50;;;;;;;5.18;1.13;;;18.60;96.50;;;;;;5065252;28;20032;-66
2022/05/08 00:47:17;;;;;;;4.55;0.90;;;18.80;96.10;;;;;;5073507;28;20495;-66
2022/05/08 00:49:44;;;;;;;3.38;1.08;;;18.90;95.20;;;;;;5071804;28;20077;-66
2022/05/08 00:52:12;;;;;;;2.70;0.80;;;18.70;94.80;;;;;;5073798;28;20475;-66
2022/05/08 00:54:39;;;;;;;1.98;0.90;;;18.80;95.00;;;;;;5073266;28;20020;-65
2022/05/08 00:57:07;;;;;;;1.95;0.55;;;19.00;95.20;;;;;;5067099;28;20107;-66
2022/05/08 00:59:35;;;;;;;2.42;0.45;;;19.10;94.20;;;;;;5066873;28;20521;-67
2022/05/08 01:02:03;;;;;;;2.10;0.43;;;19.20;94.30;;;;;;5073358;28;20025;-67
2022/05/08 01:04:31;;;;;;;1.30;0.40;;;19.30;94.00;;;;;;5070846;28;20110;-68
2022/05/08 01:06:58;;;;;;;2.13;0.52;;;19.80;94.40;;;;;;5082633;28;20024;-69
2022/05/08 01:09:25;;;;;;;0.73;0.43;;;20.00;92.90;;;;;;5074811;28;20021;-68
2022/05/08 01:11:52;;;;;;;1.48;0.60;;;20.00;92.70;;;;;;5078100;28;20552;-66
2022/05/08 01:14:19;;;;;;;3.20;0.60;;;20.00;93.50;;;;;;5080945;28;20024;-66
2022/05/08 01:16:46;;;;;;;5.18;1.15;;;20.00;92.90;;;;;;5082838;28;20751;-66
2022/05/08 01:19:13;;;;;;;2.40;0.50;;;19.90;93.20;;;;;;5075353;28;20086;-67
2022/05/08 01:21:50;;;;;;;1.90;0.50;;;19.90;93.00;;;;;;4745696;28;10001013;-67
2022/05/08 01:24:22;;;;;;;2.90;0.55;;;20.00;92.20;;;;;;5069865;28;20258;-67
2022/05/08 01:26:50;;;;;;;1.08;0.70;;;20.10;92.60;;;;;;5079558;28;20173;-68
2022/05/08 01:29:18;;;;;;;4.35;0.50;;;20.10;92.30;;;;;;5078755;28;20069;-68
2022/05/08 01:31:45;;;;;;;1.73;0.55;;;19.90;91.70;;;;;;5078638;28;20069;-67
2022/05/08 01:34:12;;;;;;;5.05;0.50;;;20.00;92.70;;;;;;5073184;28;20104;-68
2022/05/08 01:36:41;;;;;;;1.77;0.50;;;20.20;92.30;;;;;;5069854;28;20036;-67
2022/05/08 01:39:08;;;;;;;0.68;0.40;;;20.30;91.50;;;;;;5073233;28;20036;-67
2022/05/08 01:41:36;;;;;;;3.15;0.50;;;20.40;91.30;;;;;;5074095;28;20024;-68
2022/05/08 01:44:03;;;;;;;1.38;0.52;;;20.70;91.40;;;;;;5079930;28;20024;-69
2022/05/08 01:46:30;;;;;;;19.23;2.13;;;21.10;92.80;;;;;;5068313;28;20024;-69
2022/05/08 01:48:56;;;;;;;2.70;0.40;;;21.10;90.10;;;;;;5065380;28;20028;-67
2022/05/08 01:51:23;;;;;;;3.33;0.30;;;20.80;90.10;;;;;;5069036;28;20272;-66
2022/05/08 01:53:50;;;;;;;4.05;0.68;;;20.80;88.80;;;;;;5074271;28;20111;-66
2022/05/08 01:56:19;;;;;;;2.40;0.43;;;20.70;90.40;;;;;;5075193;28;20099;-67
2022/05/08 01:58:48;;;;;;;1.27;0.50;;;20.80;90.10;;;;;;5065829;28;20070;-68
2022/05/08 02:01:15;;;;;;;3.88;0.70;;;20.70;88.40;;;;;;5072219;28;20028;-67
2022/05/08 02:03:44;;;;;;;9.07;1.10;;;20.50;89.90;;;;;;5064392;28;20023;-68
2022/05/08 02:06:11;;;;;;;12.27;1.30;;;20.70;90.20;;;;;;5046581;28;20083;-65
2022/05/08 02:08:38;;;;;;;1.48;0.57;;;21.10;89.30;;;;;;5070493;28;20035;-67
2022/05/08 02:11:06;;;;;;;1.42;0.50;;;21.20;86.60;;;;;;5075757;28;20123;-67
2022/05/08 02:13:34;;;;;;;1.35;0.60;;;21.30;84.50;;;;;;5076356;28;20051;-67
2022/05/08 02:16:01;;;;;;;1.75;0.25;;;21.20;82.70;;;;;;5073674;28;20172;-70
2022/05/08 02:18:28;;;;;;;1.65;0.60;;;21.20;83.10;;;;;;5075123;28;20047;-69
2022/05/08 02:20:55;;;;;;;1.08;0.40;;;21.40;84.20;;;;;;5064448;28;20012;-67
2022/05/08 02:23:22;;;;;;;2.45;0.50;;;21.60;82.70;;;;;;5066502;28;20576;-67
2022/05/08 02:25:49;;;;;;;2.45;0.30;;;21.50;82.70;;;;;;5069549;28;20259;-66
2022/05/08 02:28:16;;;;;;;0.52;0.30;;;21.40;82.80;;;;;;5071369;28;20262;-67
2022/05/08 02:30:43;;;;;;;1.80;0.52;;;21.40;83.00;;;;;;5072568;28;20028;-68
2022/05/08 02:33:09;;;;;;;1.70;0.40;;;21.40;81.40;;;;;;5062275;28;20367;-65
2022/05/08 02:35:36;;;;;;;0.93;0.43;;;21.60;81.60;;;;;;5074457;28;20028;-65
2022/05/08 02:38:04;;;;;;;1.17;0.43;;;21.70;82.00;;;;;;5072558;28;20257;-64
2022/05/08 02:40:31;;;;;;;0.63;0.22;;;21.70;81.80;;;;;;5067075;28;20514;-66
2022/05/08 02:42:57;;;;;;;2.03;0.77;;;21.70;81.60;;;;;;5069913;28;20020;-68
2022/05/08 02:45:25;;;;;;;2.35;0.77;;;21.60;81.40;;;;;;5060777;28;20132;-64
2022/05/08 02:47:52;;;;;;;5.05;1.45;;;21.40;82.20;;;;;;5073768;28;20103;-64
2022/05/08 02:50:20;;;;;;;2.03;0.38;;;21.70;84.00;;;;;;5074774;28;20120;-69
2022/05/08 02:52:47;;;;;;;3.42;0.65;;;21.80;78.80;;;;;;5070474;28;20020;-65
2022/05/08 03:01:01;;;;;;;1.05;0.20;;;21.80;80.20;;;;;;4999207;28;20049;-65
2022/05/08 03:03:29;;;;;;;0.93;0.50;;;21.70;79.20;;;;;;4999888;28;20038;-65
2022/05/08 03:05:56;;;;;;;0.73;0.32;;;21.60;81.10;;;;;;5000041;28;20074;-67
2022/05/08 03:08:24;;;;;;;1.13;0.50;;;21.70;80.50;;;;;;4998699;28;20037;-66
2022/05/08 03:13:38;;;;;;;0.60;0.30;;;21.90;79.60;;;;;;4999717;28;20084;-65
2022/05/08 03:16:07;;;;;;;0.80;0.40;;;22.10;79.30;;;;;;4998194;28;20185;-64
2022/05/08 03:18:41;;;;;;;0.93;0.45;;;22.20;80.90;;;;;;4997579;28;20030;-66
2022/05/08 03:21:09;;;;;;;0.32;0.30;;;22.40;81.40;;;;;;5000949;28;20107;-66
2022/05/08 03:23:36;;;;;;;2.33;2.00;;;22.40;77.80;;;;;;4999385;28;20918;-64
2022/05/08 03:26:07;;;;;;;4.63;4.05;;;22.40;80.70;;;;;;5000855;28;20021;-65
2022/05/08 03:28:35;;;;;;;3.47;0.47;;;22.40;80.20;;;;;;5003690;28;20128;-64
2022/05/08 03:31:02;;;;;;;1.83;0.57;;;22.40;79.00;;;;;;5001563;28;20635;-64
2022/05/08 03:33:30;;;;;;;1.52;0.40;;;22.30;77.50;;;;;;4985673;28;20126;-64
2022/05/08 03:35:57;;;;;;;2.40;0.75;;;22.30;79.20;;;;;;5012431;28;20071;-65
2022/05/08 03:38:25;;;;;;;0.95;0.20;;;22.30;79.40;;;;;;5076678;28;20521;-68
2022/05/08 03:40:52;;;;;;;1.48;0.47;;;22.10;78.40;;;;;;5079334;28;20040;-65
2022/05/08 03:43:19;;;;;;;1.15;0.50;;;22.10;79.00;;;;;;5078052;28;20501;-65
2022/05/08 03:45:49;;;;;;;0.70;0.35;;;22.30;79.60;;;;;;5077545;28;20040;-66
2022/05/08 03:48:21;;;;;;;1.55;0.40;;;22.50;78.60;;;;;;5082764;28;20426;-68
2022/05/08 03:50:48;;;;;;;1.33;0.40;;;22.40;76.70;;;;;;5078428;28;20482;-65
2022/05/08 03:53:15;;;;;;;1.88;0.60;;;22.50;78.20;;;;;;5075913;28;20058;-65
2022/05/08 03:55:42;;;;;;;3.20;0.38;;;22.50;78.00;;;;;;5074463;28;20103;-67
2022/05/08 03:58:10;;;;;;;1.30;0.30;;;22.40;78.80;;;;;;5077187;28;20024;-66
2022/05/08 04:00:36;;;;;;;0.35;0.30;;;22.30;79.60;;;;;;5077601;28;20266;-65
2022/05/08 04:03:03;;;;;;;0.20;0.20;;;22.30;78.80;;;;;;5071826;28;20083;-66
2022/05/08 04:05:30;;;;;;;0.50;0.40;;;22.10;76.70;;;;;;5075719;28;20387;-69
2022/05/08 04:07:58;;;;;;;0.57;0.40;;;22.10;78.90;;;;;;5082541;28;20505;-66
2022/05/08 04:10:25;;;;;;;1.10;0.50;;;22.30;79.20;;;;;;5078756;28;20040;-67
2022/05/08 04:12:51;;;;;;;1.48;0.50;;;22.30;77.50;;;;;;5081906;28;20024;-68
2022/05/08 04:18:04;;;;;;;2.15;0.68;;;22.50;79.90;;;;;;5082162;28;20481;-69
2022/05/08 04:20:31;;;;;;;1.02;0.35;;;22.60;81.30;;;;;;5080040;28;20139;-66
2022/05/08 04:25:43;;;;;;;0.22;0.17;;;22.70;78.00;;;;;;5075024;28;20135;-68
2022/05/08 04:28:11;;;;;;;1.80;0.60;;;22.70;78.70;;;;;;5075160;28;20024;-65
2022/05/08 04:30:38;;;;;;;0.77;0.50;;;22.80;78.60;;;;;;5077193;28;20033;-69
2022/05/08 04:33:05;;;;;;;0.50;0.40;;;22.80;76.90;;;;;;5079882;28;20032;-69
2022/05/08 04:35:32;;;;;;;1.35;0.52;;;22.80;80.00;;;;;;5075256;28;20495;-64
2022/05/08 04:37:59;;;;;;;1.10;0.40;;;22.80;78.00;;;;;;5071887;28;20097;-65
2022/05/08 04:40:26;;;;;;;1.17;0.40;;;22.70;80.40;;;;;;5081601;28;20595;-70
2022/05/08 04:42:53;;;;;;;2.00;0.55;;;22.60;79.40;;;;;;5079574;28;20038;-64
2022/05/08 04:45:21;;;;;;;0.90;0.25;;;22.60;79.20;;;;;;5081307;28;20020;-70
2022/05/08 04:47:47;;;;;;;0.88;0.32;;;22.70;80.00;;;;;;5068619;28;20037;-70
2022/05/08 04:50:15;;;;;;;1.58;0.50;;;22.90;81.20;;;;;;5074591;28;20016;-69
2022/05/08 04:52:42;;;;;;;3.15;0.70;;;22.90;76.50;;;;;;5078442;28;20276;-64
2022/05/08 04:55:09;;;;;;;0.60;0.40;;;22.80;77.00;;;;;;5079730;28;20058;-63
2022/05/08 04:57:36;;;;;;;0.45;0.38;;;23.00;76.50;;;;;;5079580;28;20099;-69
2022/05/08 05:00:04;;;;;;;0.75;0.30;;;22.90;76.70;;;;;;5077833;28;20151;-64
2022/05/08 05:02:33;;;;;;;0.63;0.30;;;22.90;75.20;;;;;;5079704;28;20032;-69
2022/05/08 05:05:00;;;;;;;0.70;0.40;;;22.90;76.20;;;;;;5079846;28;20039;-64
2022/05/08 05:07:28;;;;;;;0.75;0.30;;;22.90;77.10;;;;;;5072959;28;20056;-69
2022/05/08 05:09:55;;;;;;;1.75;0.40;;;23.00;77.10;;;;;;5077184;28;20055;-64
2022/05/08 05:12:23;;;;;;;0.43;0.40;;;22.90;77.30;;;;;;5078738;28;20428;-64
2022/05/08 05:14:50;;;;;;;1.13;0.30;;;22.70;76.10;;;;;;5073327;28;20028;-64
2022/05/08 05:17:17;;;;;;;1.17;0.40;;;22.80;77.20;;;;;;5071827;28;20035;-65
2022/05/08 05:19:43;;;;;;;1.83;0.68;;;22.90;76.50;;;;;;5075740;28;20055;-67
2022/05/08 05:22:10;;;;;;;1.60;0.32;;;23.10;75.40;;;;;;5068636;28;20033;-64
2022/05/08 05:24:37;;;;;;;1.75;0.90;;;23.30;74.20;;;;;;5069379;28;20032;-64
2022/05/08 05:27:04;;;;;;;2.30;1.38;;;23.50;75.30;;;;;;5074043;28;20033;-67
2022/05/08 05:29:31;;;;;;;1.30;0.47;;;23.60;74.70;;;;;;5069766;28;20029;-65
2022/05/08 05:31:58;;;;;;;0.80;0.65;;;23.90;74.00;;;;;;5077197;28;20432;-63
2022/05/08 05:34:25;;;;;;;2.97;1.15;;;24.10;73.60;;;;;;5075361;28;20185;-69
2022/05/08 05:36:52;;;;;;;1.45;0.45;;;24.40;73.90;;;;;;5071742;28;20569;-64
2022/05/08 05:39:19;;;;;;;1.55;0.60;;;24.50;72.30;;;;;;5076228;28;20086;-71
2022/05/08 05:41:46;;;;;;;1.50;0.63;;;24.50;73.70;;;;;;5073523;28;20044;-63
2022/05/08 05:44:13;;;;;;;0.47;0.20;;;24.60;73.90;;;;;;5072849;28;20032;-63
2022/05/08 05:49:28;;;;;;;0.60;0.38;;;24.60;72.90;;;;;;5074743;28;20141;-64
2022/05/08 05:51:56;;;;;;;2.50;1.38;;;24.60;70.80;;;;;;5071803;28;20031;-68
2022/05/08 05:54:26;;;;;;;1.38;0.40;;;24.80;70.80;;;;;;5076745;28;20024;-63
2022/05/08 05:56:53;;;;;;;1.55;0.40;;;24.40;71.10;;;;;;5063352;28;20036;-64
2022/05/08 05:59:20;;;;;;;0.30;0.30;;;23.80;72.70;;;;;;5068962;28;20039;-68
2022/05/08 06:01:47;;;;;;;0.65;0.43;;;23.30;71.80;;;;;;5065226;28;20029;-62
2022/05/08 06:04:14;;;;;;;0.65;0.30;;;22.80;74.70;;;;;;5058071;28;20024;-64
2022/05/08 06:06:41;;;;;;;2.03;0.60;;;22.80;74.40;;;;;;5071234;28;20025;-63
2022/05/08 06:09:08;;;;;;;1.05;0.40;;;23.10;74.10;;;;;;5073477;28;20055;-63
2022/05/08 06:11:35;;;;;;;2.55;0.80;;;23.50;73.90;;;;;;5074767;28;20024;-62
2022/05/08 06:14:02;;;;;;;3.17;0.80;;;23.90;72.20;;;;;;5067989;28;20421;-64
2022/05/08 06:16:31;;;;;;;1.90;0.90;;;24.20;72.30;;;;;;5075552;28;20012;-62
2022/05/08 06:18:59;;;;;;;1.45;0.80;;;24.60;71.50;;;;;;5077421;28;21341;-66
2022/05/08 06:21:26;;;;;;;4.85;0.95;;;24.60;71.00;;;;;;5076526;28;20077;-64
2022/05/08 06:23:54;;;;;;;1.20;0.70;;;24.00;71.90;;;;;;5070529;28;20106;-62
2022/05/08 06:26:21;;;;;;;4.88;0.70;;;23.70;72.40;;;;;;5065002;28;20118;-68
2022/05/08 06:28:48;;;;;;;1.40;0.90;;;23.60;73.10;;;;;;5073279;28;20500;-64
2022/05/08 06:31:17;;;;;;;2.58;0.70;;;23.80;72.90;;;;;;5072551;28;20492;-64
2022/05/08 06:33:45;;;;;;;1.65;0.90;;;23.90;72.80;;;;;;5070630;28;20025;-66
2022/05/08 06:36:12;;;;;;;1.00;0.80;;;23.60;72.50;;;;;;5076395;28;20028;-67
2022/05/08 06:38:39;;;;;;;0.88;0.70;;;23.50;72.20;;;;;;5068064;28;20036;-65
2022/05/08 06:41:06;;;;;;;1.33;0.65;;;23.30;72.80;;;;;;5067522;28;20028;-63
2022/05/08 06:43:33;;;;;;;1.58;0.80;;;23.00;74.40;;;;;;5070263;28;20023;-64
2022/05/08 06:46:00;;;;;;;0.90;0.80;;;22.70;74.90;;;;;;5072240;28;20131;-66
2022/05/08 06:48:27;;;;;;;1.45;0.90;;;22.40;75.70;;;;;;5073003;28;20028;-66
2022/05/08 06:50:54;;;;;;;1.05;0.68;;;22.20;75.10;;;;;;5074545;28;20020;-70
2022/05/08 06:53:21;;;;;;;1.40;0.80;;;21.90;75.60;;;;;;5068941;28;20024;-66
2022/05/08 06:55:48;;;;;;;1.75;0.95;;;21.60;76.00;;;;;;5081871;28;20469;-64
2022/05/08 06:58:15;;;;;;;1.58;0.80;;;21.10;77.50;;;;;;5071835;28;20883;-62
2022/05/08 07:03:27;;;;;;;1.35;0.90;;;19.80;81.00;;;;;;5073854;28;20039;-65
2022/05/08 07:05:55;;;;;;;1.42;0.55;;;19.40;82.30;;;;;;5075047;28;20025;-64
2022/05/08 07:08:22;;;;;;;1.95;0.80;;;19.00;84.00;;;;;;5075543;28;20053;-66
2022/05/08 07:10:50;;;;;;;2.40;0.80;;;18.70;85.10;;;;;;5074188;28;20023;-66
2022/05/08 07:13:17;;;;;;;1.85;0.70;;;18.50;86.00;;;;;;5075357;28;20077;-70
2022/05/08 07:15:44;;;;;;;1.25;0.82;;;18.20;88.40;;;;;;5065457;28;20100;-67
2022/05/08 07:18:11;;;;;;;2.58;1.25;;;17.90;89.80;;;;;;5073299;28;20411;-66
2022/05/08 07:20:38;;;;;;;2.75;0.93;;;17.80;90.10;;;;;;5074024;28;20572;-66
2022/05/08 07:23:05;;;;;;;1.45;0.95;;;17.60;91.00;;;;;;5074435;28;20024;-70
2022/05/08 07:25:32;;;;;;;2.20;0.98;;;17.50;90.90;;;;;;5075639;28;20032;-65
2022/05/08 07:27:59;;;;;;;1.08;0.80;;;17.40;91.00;;;;;;5076272;28;20016;-65
2022/05/08 07:30:26;;;;;;;1.90;0.90;;;17.30;91.30;;;;;;5077023;28;20064;-70
2022/05/08 07:32:53;;;;;;;1.55;1.00;;;17.20;91.70;;;;;;5077580;28;20054;-65
2022/05/08 07:38:05;;;;;;;1.75;1.02;;;17.00;92.50;;;;;;5075519;28;20044;-66
2022/05/08 07:40:33;;;;;;;2.03;1.10;;;17.00;93.40;;;;;;5064060;28;20020;-70
2022/05/08 07:43:01;;;;;;;1.52;0.90;;;16.90;93.50;;;;;;5070293;28;20767;-67
2022/05/08 07:45:29;;;;;;;2.30;1.45;;;16.80;93.60;;;;;;5070572;28;20032;-66
2022/05/08 07:47:56;;;;;;;1.80;1.00;;;16.70;94.00;;;;;;5074590;28;20020;-70
2022/05/08 07:50:23;;;;;;;1.60;1.05;;;16.60;94.40;;;;;;5062223;28;20028;-65
2022/05/08 07:52:51;;;;;;;4.53;1.00;;;16.60;94.70;;;;;;5061633;28;20131;-70
2022/05/08 07:55:18;;;;;;;4.25;2.58;;;16.50;95.20;;;;;;5061977;28;20032;-69
2022/05/08 07:57:45;;;;;;;3.25;1.10;;;16.30;95.90;;;;;;5067008;28;20530;-65
2022/05/08 08:00:12;;;;;;;3.50;1.50;;;16.30;96.00;;;;;;5064497;28;20021;-65
2022/05/08 08:02:39;;;;;;;3.70;1.40;;;16.30;96.30;;;;;;5062476;28;20107;-65
2022/05/08 08:05:06;;;;;;;5.03;1.92;;;16.20;96.70;;;;;;5064749;28;20493;-62
2022/05/08 08:07:33;;;;;;;2.83;1.50;;;16.00;96.90;;;;;;5071501;28;20067;-65
2022/05/08 08:10:00;;;;;;;3.13;2.10;;;15.90;97.50;;;;;;5062270;28;20039;-64
2022/05/08 08:12:27;;;;;;;3.78;2.17;;;15.80;97.90;;;;;;5062862;28;20016;-68
2022/05/08 08:14:54;;;;;;;3.17;2.42;;;15.70;98.50;;;;;;5062065;28;20340;-65
2022/05/08 08:17:22;;;;;;;3.67;2.53;;;15.70;99.00;;;;;;5071278;28;20035;-65
2022/05/08 08:19:49;;;;;;;3.67;2.42;;;15.70;99.50;;;;;;5077557;28;20028;-65
2022/05/08 08:22:16;;;;;;;3.10;2.05;;;15.60;99.80;;;;;;5071387;28;20024;-67
2022/05/08 08:24:43;;;;;;;3.03;1.67;;;15.60;99.90;;;;;;5076962;28;20540;-65
2022/05/08 08:27:10;;;;;;;2.28;1.33;;;15.60;99.90;;;;;;5070365;28;20044;-64
2022/05/08 08:29:37;;;;;;;2.33;1.55;;;15.50;99.90;;;;;;5078118;28;20394;-63
2022/05/08 08:32:04;;;;;;;1.92;1.40;;;15.50;99.90;;;;;;5071464;28;20032;-64
2022/05/08 08:34:31;;;;;;;3.08;2.13;;;15.50;99.90;;;;;;5064315;28;20028;-65
2022/05/08 08:36:58;;;;;;;4.35;3.15;;;15.50;99.90;;;;;;5079828;28;20025;-69
2022/05/08 08:39:25;;;;;;;2.30;1.50;;;15.50;99.90;;;;;;5062207;28;20226;-71
2022/05/08 08:42:21;;;;;;;1.58;1.35;;;15.50;99.90;;;;;;5061404;28;20028;-65
2022/05/08 08:47:50;;;;;;;4.95;1.63;;;15.80;99.90;;;;;;5082491;28;20129;-69
2022/05/08 08:50:18;;;;;;;2.67;1.58;;;15.70;99.90;;;;;;5074461;28;20029;-69
2022/05/08 08:52:47;;;;;;;3.97;2.40;;;15.70;99.90;;;;;;5069065;28;20051;-66
2022/05/08 08:55:16;;;;;;;2.10;1.23;;;15.70;99.90;;;;;;5068258;28;20486;-65
2022/05/08 08:57:46;;;;;;;2.08;1.55;;;15.80;99.90;;;;;;5062805;28;20024;-67
2022/05/08 09:00:14;;;;;;;2.45;1.42;;;16.00;99.90;;;;;;5060152;28;20029;-65
2022/05/08 09:02:41;;;;;;;3.20;1.45;;;16.00;99.90;;;;;;5074566;28;20434;-63
2022/05/08 09:05:10;;;;;;;2.78;1.80;;;16.00;99.90;;;;;;5078887;28;20039;-62
2022/05/08 09:07:44;;;;;;;3.15;1.40;;;15.90;99.90;;;;;;5069141;28;20031;-62
2022/05/08 09:10:15;;;;;;;4.10;1.70;;;15.90;99.90;;;;;;5072123;28;20518;-66
2022/05/08 09:12:45;;;;;;;4.35;2.45;;;15.90;99.90;;;;;;5076464;28;20020;-69
2022/05/08 09:15:20;;;;;;;4.30;2.70;;;16.40;99.90;;;;;;5065643;28;20471;-65
2022/05/08 09:17:50;;;;;;;4.05;2.38;;;17.20;99.90;;;;;;5068435;28;20169;-67
2022/05/08 09:20:34;;;;;;;6.13;2.92;;;17.00;99.90;;;;;;5061018;28;20017;-69
2022/05/08 09:23:11;;;;;;;3.45;1.92;;;16.90;99.90;;;;;;5059368;28;20040;-66
2022/05/08 09:25:59;;;;;;;6.13;2.33;;;16.90;99.90;;;;;;5059003;28;20043;-65
2022/05/08 09:28:40;;;;;;;3.85;1.60;;;17.20;99.90;;;;;;5055736;28;20143;-66
2022/05/08 09:31:18;;;;;;;4.53;2.15;;;17.20;99.90;;;;;;5076992;28;20035;-65
2022/05/08 09:33:53;;;;;;;3.47;1.73;;;17.10;99.90;;;;;;5063762;28;20397;-66
2022/05/08 09:36:25;;;;;;;3.90;1.80;;;17.50;99.90;;;;;;5072647;28;20112;-65
2022/05/08 09:39:00;;;;;;;3.50;1.90;;;17.40;99.90;;;;;;5063956;28;20072;-63
2022/05/08 09:41:29;;;;;;;5.07;1.70;;;17.40;99.90;;;;;;5073209;28;20520;-65
2022/05/08 09:44:09;;;;;;;2.13;1.38;;;17.90;99.90;;;;;;5076587;28;20074;-63
2022/05/08 09:46:37;;;;;;;2.50;1.50;;;18.10;99.90;;;;;;5077549;28;20028;-62
2022/05/08 09:49:06;;;;;;;3.05;1.73;;;18.10;99.90;;;;;;5075519;28;20027;-65
2022/05/08 09:51:34;;;;;;;2.28;1.30;;;17.90;99.90;;;;;;5075704;28;20016;-66
2022/05/08 09:54:01;;;;;;;2.50;1.23;;;17.40;99.90;;;;;;5070286;28;20474;-65
2022/05/08 09:56:30;;;;;;;3.67;1.60;;;16.90;99.90;;;;;;5076558;28;20490;-68
2022/05/08 09:58:58;;;;;;;3.85;3.10;;;16.50;99.90;;;;;;5075881;28;20077;-68
2022/05/08 10:01:25;;;;;;;3.72;1.73;;;16.50;99.90;;;;;;5076589;28;20103;-65
2022/05/08 10:03:55;;;;;;;3.10;2.47;;;16.10;99.90;;;;;;5077423;28;20127;-68
2022/05/08 10:06:23;;;;;;;3.35;1.80;;;15.70;99.90;;;;;;5075870;28;20028;-67
2022/05/08 10:08:51;;;;;;;3.55;1.75;;;15.20;99.90;;;;;;5066949;28;20107;-69
2022/05/08 10:14:05;;;;;;;6.63;2.33;;;14.80;99.90;;;;;;5072733;28;20046;-68
2022/05/08 10:16:51;;;;;;;8.40;3.47;;;14.80;99.90;;;;;;5074310;28;20039;-67
2022/05/08 10:19:19;;;;;;;10.60;2.83;;;14.70;99.90;;;;;;5068200;28;20031;-70
2022/05/08 10:22:16;;;;;;;10.23;3.05;;;14.60;99.90;;;;;;5063390;28;20111;-67
2022/05/08 10:24:53;;;;;;;5.05;2.55;;;14.50;99.90;;;;;;5074842;28;20035;-69
2022/05/08 10:27:26;;;;;;;8.32;2.65;;;14.20;99.90;;;;;;5071822;28;20028;-67
2022/05/08 10:29:53;;;;;;;6.38;2.83;;;14.10;99.90;;;;;;5072069;28;20540;-70
2022/05/08 10:32:32;;;;;;;8.77;3.22;;;13.90;99.90;;;;;;5075636;28;20093;-63
2022/05/08 10:35:16;;;;;;;15.45;4.20;;;13.70;99.90;;;;;;5071407;28;20551;-64
2022/05/08 10:37:46;;;;;;;10.63;3.67;;;13.50;99.90;;;;;;5057693;22;20054;-71
2022/05/08 10:40:27;;;;;;;11.55;4.20;;;13.40;99.90;;;;;;5031268;28;20025;-64
2022/05/08 10:43:00;;;;;;;6.43;3.47;;;13.30;99.90;;;;;;5031642;28;20049;-65
2022/05/08 10:45:33;;;;;;;9.65;3.08;;;13.20;99.90;;;;;;5032021;28;20021;-73
2022/05/08 10:48:12;;;;;;;8.80;3.53;;;13.20;99.90;;;;;;5028325;28;20124;-67
2022/05/08 10:50:42;;;;;;;6.63;3.13;;;13.30;99.90;;;;;;5036954;28;20052;-69
2022/05/08 10:53:30;;;;;;;4.65;2.97;;;13.20;99.90;;;;;;5027636;28;20032;-70
2022/05/08 10:56:05;;;;;;;10.63;2.80;;;13.20;99.90;;;;;;5016387;28;20014;-67
2022/05/08 10:58:40;;;;;;;6.40;2.60;;;13.20;99.90;;;;;;5017852;28;20026;-71
2022/05/08 11:01:12;;;;;;;5.18;2.50;;;13.60;99.90;;;;;;5016509;28;20539;-70
2022/05/08 11:03:39;;;;;;;6.07;2.65;;;14.00;99.90;;;;;;5009934;28;20033;-66
2022/05/08 11:06:06;;;;;;;6.22;3.10;;;14.20;99.90;;;;;;5021162;28;20025;-69
2022/05/08 11:08:36;;;;;;;7.90;3.78;;;14.20;99.90;;;;;;5011126;28;20088;-67
2022/05/08 11:11:10;;;;;;;3.90;1.92;;;14.70;99.90;;;;;;5021443;28;20435;-69
2022/05/08 11:13:39;;;;;;;5.07;3.45;;;14.90;99.90;;;;;;5019270;28;20578;-66
2022/05/08 11:16:06;;;;;;;6.40;2.75;;;15.20;99.90;;;;;;5020513;28;20055;-65
2022/05/08 11:18:33;;;;;;;4.78;2.17;;;15.00;99.90;;;;;;5021631;28;20032;-65
2022/05/08 11:21:08;;;;;;;7.25;3.28;;;14.80;99.90;;;;;;5019426;28;20026;-71
2022/05/08 11:23:44;;;;;;;6.10;2.40;;;14.70;99.90;;;;;;5021919;28;20029;-68
2022/05/08 11:26:12;;;;;;;6.60;2.53;;;14.20;99.90;;;;;;5009212;28;20034;-69
2022/05/08 11:28:57;;;;;;;4.95;2.60;;;13.80;99.90;;;;;;5017890;28;20078;-68
2022/05/08 11:31:25;;;;;;;3.45;2.08;;;13.40;99.90;;;;;;5019478;28;20072;-71
2022/05/08 11:36:39;;;;;;;3.47;2.42;;;12.90;99.90;;;;;;5025838;28;20053;-65
2022/05/08 11:39:11;;;;;;;5.88;2.33;;;12.70;99.90;;;;;;5023794;28;20067;-72
2022/05/08 11:41:44;;;;;;;4.20;2.72;;;12.50;99.90;;;;;;5020524;28;20065;-67
2022/05/08 11:44:13;;;;;;;;;;;12.40;99.90;;;;;;5024513;28;20025;-72
2022/05/08 11:46:44;;;;;;;3.78;1.75;;;12.30;99.90;;;;;;5015459;28;19917;-66
2022/05/08 11:49:14;;;;;;;5.88;2.80;;;12.20;99.90;;;;;;5018746;28;20036;-65
2022/05/08 11:51:46;;;;;;;4.70;2.88;;;12.10;99.90;;;;;;5015529;28;20030;-67
2022/05/08 11:54:35;;;;;;;3.13;2.30;;;12.00;99.90;;;;;;5017410;28;20022;-65
2022/05/08 11:57:21;;;;;;;4.00;2.20;;;11.90;99.90;;;;;;5016471;28;20396;-72
2022/05/08 11:59:49;;;;;;;3.10;1.83;;;11.90;99.90;;;;;;5016870;28;20103;-68
2022/05/08 12:02:17;;;;;;;4.40;2.20;;;12.00;99.90;;;;;;5016181;28;20037;-64
2022/05/08 12:04:55;;;;;;;4.07;1.95;;;11.90;99.90;;;;;;5021993;28;20543;-64
2022/05/08 12:07:23;;;;;;;2.50;1.77;;;11.90;99.90;;;;;;5017432;28;20376;-67
2022/05/08 12:09:53;;;;;;;3.38;2.10;;;11.90;99.90;;;;;;5017375;28;20053;-68
2022/05/08 12:12:30;;;;;;;3.75;1.45;;;11.90;99.90;;;;;;5017980;28;20017;-67
2022/05/08 12:15:20;;;;;;;3.47;1.25;;;11.90;99.90;;;;;;5017008;28;20033;-66
2022/05/08 12:17:49;;;;;;;2.17;1.42;;;12.00;99.90;;;;;;5016977;28;20104;-68
2022/05/08 12:20:28;;;;;;;4.45;2.70;;;12.10;99.90;;;;;;5018636;28;20559;-65
2022/05/08 12:23:21;;;;;;;7.40;5.13;;;12.00;99.90;;;;;;5016152;28;20034;-66
2022/05/08 12:25:50;;;;;;;2.40;1.70;;;11.90;99.90;;;;;;5015238;28;20076;-67
2022/05/08 12:28:17;;;;;;;1.85;1.20;;;11.90;99.90;;;;;;5016709;28;20108;-67
2022/05/08 12:30:44;;;;;;;1.45;0.90;;;12.00;99.90;;;;;;5017291;28;20401;-67
2022/05/08 12:33:11;;;;;;;5.75;1.10;;;11.90;99.90;;;;;;5022430;28;20022;-67
2022/05/08 12:35:38;;;;;;;3.53;1.30;;;11.90;99.90;;;;;;5016017;28;20439;-65
2022/05/08 12:38:06;;;;;;;1.95;1.20;;;11.90;99.90;;;;;;5016617;28;20041;-67
2022/05/08 12:40:33;;;;;;;4.78;2.22;;;12.00;99.90;;;;;;5018603;28;20423;-67
2022/05/08 12:43:03;;;;;;;2.85;1.23;;;12.00;99.90;;;;;;5018767;28;20128;-67
2022/05/08 12:45:30;;;;;;;2.20;1.08;;;12.00;99.90;;;;;;5016065;28;20022;-68
2022/05/08 12:47:57;;;;;;;1.20;0.93;;;12.10;99.90;;;;;;5018111;28;20034;-72
2022/05/08 12:50:24;;;;;;;3.70;1.13;;;12.10;99.90;;;;;;5018773;28;20030;-67
2022/05/08 12:52:55;;;;;;;3.13;1.45;;;12.20;99.90;;;;;;5018012;28;20026;-68
2022/05/08 12:55:22;;;;;;;2.20;1.15;;;12.20;99.90;;;;;;5017532;28;20017;-65
2022/05/08 13:00:34;;;;;;;2.15;1.00;;;12.10;99.90;;;;;;5019085;28;20032;-67
2022/05/08 13:03:01;;;;;;;1.95;1.00;;;12.00;99.90;;;;;;5023895;28;20018;-67
2022/05/08 13:05:29;;;;;;;2.28;1.17;;;12.00;99.90;;;;;;5025526;28;20025;-72
2022/05/08 13:07:56;;;;;;;1.27;0.90;;;12.00;99.90;;;;;;5020538;28;20123;-67
2022/05/08 13:10:23;;;;;;;2.58;1.10;;;11.90;99.90;;;;;;5023584;28;20087;-67
2022/05/08 13:12:50;;;;;;;3.67;1.00;;;11.70;99.90;;;;;;5022744;28;20278;-64
2022/05/08 13:15:18;;;;;;;2.38;1.20;;;11.60;99.90;;;;;;5026837;28;20201;-66
2022/05/08 13:17:45;;;;;;;3.05;1.70;;;11.60;99.90;;;;;;5024199;28;20034;-72
2022/05/08 13:20:12;;;;;;;3.83;1.50;;;11.80;99.90;;;;;;5024319;28;20057;-66
2022/05/08 13:22:41;;;;;;;3.22;1.85;;;11.90;99.90;;;;;;5025786;28;20029;-67
2022/05/08 13:25:09;;;;;;;3.97;1.85;;;11.90;99.90;;;;;;5026931;28;20092;-67
2022/05/08 13:27:36;;;;;;;2.72;1.50;;;11.90;99.90;;;;;;5028226;28;21116;-68